General Aviation Weather

Text Reports

Enter one or more of the following location identifiers separated by a space:

Zip Code, Four-Character ICAO or Three-Character IATA airport codes.

METAR - Aviation Routine Weather Report
KT35 - Cameron, Texas
Updated at 6:55 PM GMT on July 22, 2014 (1:55 PM CDT):
METAR KT35 221855Z AUTO 17004KT 10SM CLR 33/23 A3005 RMK AO2 T03320231
TAF - Terminal Area Forecast
KT35 - Cameron, Texas
Updated at 6:55 PM GMT on July 22, 2014 (1:55 PM CDT):
No TAF is currently available for this location.
Decoded:
No decoded TAF is available.
PIREP - Pilot Weather Report
KT35 - Cameron, Texas
Updated at 6:55 PM GMT on July 22, 2014 (1:55 PM CDT):
No PIREP is currently available for this location.
AIRMET - Airmens Meteorological Information
KT35 - Cameron, Texas
Updated at 6:55 PM GMT on July 22, 2014 (1:55 PM CDT):
No AIRMET is currently available for this location.
SIGMET - Significant Meteorological Information
KT35 - Cameron, Texas
Updated at 6:55 PM GMT on July 22, 2014 (1:55 PM CDT):
No SIGMET is currently available for this location.
NOTAM - Notice to Airmen
KT35 - Cameron, Texas
Updated at 6:55 PM GMT on July 22, 2014 (1:55 PM CDT):
No NOTAM is currently available for this location.
Forecast Area
KT35 - Cameron, Texas
Updated at 6:55 PM GMT on July 22, 2014 (1:55 PM CDT):
No NOTAM is currently available for this location.
Aviation Weather Maps